Time;durP1;ratioP1;P1;durP2;ratioP2;P2;SDS_P1;SDS_P2;PMS_P1;PMS_P2;Temp;Humidity;BMP_temperature;BMP_pressure;BME280_temperature;BME280_humidity;BME280_pressure;Samples;Min_cycle;Max_cycle;Signal;HPM_P1;HPM_P2
2021/06/24 00:03:50;;;;;;;9.50;7.30;;;;;15.00;101640.00;;;;10509600;28;20193;-76
2021/06/24 00:08:52;;;;;;;13.93;7.63;;;;;15.00;101642.00;;;;10491840;28;20192;-76
2021/06/24 00:13:54;;;;;;;11.63;8.20;;;;;15.00;101645.00;;;;10508494;28;20209;-75
2021/06/24 00:18:56;;;;;;;9.13;7.30;;;;;15.00;101643.00;;;;10508304;28;20663;-76
2021/06/24 00:23:58;;;;;;;12.27;8.63;;;;;15.00;101630.00;;;;10525602;28;20200;-75
2021/06/24 00:29:00;;;;;;;12.33;8.33;;;;;15.00;101640.00;;;;10524848;28;20193;-76
2021/06/24 00:34:02;;;;;;;12.63;8.33;;;;;15.00;101639.00;;;;10525364;28;20220;-77
2021/06/24 00:39:04;;;;;;;10.77;7.60;;;;;15.00;101642.00;;;;10493100;28;20201;-75
2021/06/24 00:44:06;;;;;;;9.83;8.13;;;;;15.00;101632.00;;;;10474380;28;20193;-75
2021/06/24 00:49:09;;;;;;;12.70;8.00;;;;;14.90;101618.00;;;;10491905;28;20224;-75
2021/06/24 00:54:12;;;;;;;11.27;8.73;;;;;14.90;101616.00;;;;10504874;28;20212;-75
2021/06/24 00:59:14;;;;;;;14.83;8.73;;;;;14.90;101613.00;;;;10465243;28;20247;-75
2021/06/24 01:04:21;;;;;;;10.63;8.07;;;;;14.90;101617.00;;;;10465119;28;20660;-77
2021/06/24 01:09:24;;;;;;;13.37;7.90;;;;;14.90;101602.00;;;;10482420;28;20247;-75
2021/06/24 01:14:27;;;;;;;14.10;9.57;;;;;14.80;101596.00;;;;10481242;28;20313;-75
2021/06/24 01:19:30;;;;;;;16.20;8.83;;;;;14.80;101582.00;;;;10448038;28;20229;-75
2021/06/24 01:24:32;;;;;;;14.50;9.27;;;;;14.70;101578.00;;;;10485648;28;20197;-75
2021/06/24 01:29:34;;;;;;;12.03;9.00;;;;;14.60;101576.00;;;;10523371;28;20185;-75
2021/06/24 01:34:38;;;;;;;11.43;9.53;;;;;14.60;101576.00;;;;10505259;28;20684;-75
2021/06/24 01:39:41;;;;;;;11.47;8.87;;;;;14.50;101572.00;;;;10505462;28;20226;-75
2021/06/24 01:44:43;;;;;;;13.80;9.27;;;;;14.50;101575.00;;;;10488646;28;20188;-75
2021/06/24 01:49:46;;;;;;;11.83;9.23;;;;;14.50;101569.00;;;;10505098;28;20193;-75
2021/06/24 01:54:50;;;;;;;13.67;9.90;;;;;14.60;101560.00;;;;10508041;28;20216;-75
2021/06/24 01:59:52;;;;;;;12.67;9.70;;;;;14.60;101554.00;;;;10546504;28;20188;-75
2021/06/24 02:04:56;;;;;;;13.93;9.87;;;;;14.50;101568.00;;;;10546580;28;20180;-75
2021/06/24 02:10:05;;;;;;;13.17;9.93;;;;;14.50;101562.00;;;;10548293;28;20192;-75
2021/06/24 02:15:15;;;;;;;16.00;10.03;;;;;14.50;101560.00;;;;10545790;28;20212;-75
2021/06/24 02:20:23;;;;;;;15.63;9.70;;;;;14.50;101559.00;;;;10548482;28;20194;-75
2021/06/24 02:25:38;;;;;;;12.40;9.53;;;;;14.50;101549.00;;;;10507145;28;20279;-75
2021/06/24 02:31:02;;;;;;;13.27;10.07;;;;;14.50;101550.00;;;;10520646;28;20216;-75
2021/06/24 02:36:04;;;;;;;10.60;9.10;;;;;14.50;101559.00;;;;10510441;28;20222;-75
2021/06/24 02:41:12;;;;;;;9.50;8.53;;;;;14.50;101569.00;;;;10529225;28;20199;-76
2021/06/24 02:46:15;;;;;;;13.40;9.17;;;;;14.50;101562.00;;;;10529168;28;20529;-75
2021/06/24 02:51:25;;;;;;;15.63;9.30;;;;;14.50;101552.00;;;;10511923;28;20291;-75
2021/06/24 02:56:47;;;;;;;12.27;8.50;;;;;14.50;101554.00;;;;10486802;28;20209;-75
2021/06/24 03:02:08;;;;;;;10.87;8.17;;;;;14.40;101556.00;;;;10486558;28;20182;-75
2021/06/24 03:07:13;;;;;;;11.77;8.73;;;;;14.40;101546.00;;;;10486755;28;20190;-75
2021/06/24 03:12:36;;;;;;;14.20;8.87;;;;;14.40;101548.00;;;;10472458;28;20210;-76
2021/06/24 03:17:38;;;;;;;16.47;8.90;;;;;14.40;101545.00;;;;10486688;28;20194;-75
2021/06/24 03:22:41;;;;;;;14.77;8.77;;;;;14.40;101549.00;;;;10470003;28;20272;-75
2021/06/24 03:27:43;;;;;;;17.13;9.17;;;;;14.40;101552.00;;;;10468833;28;20193;-75
2021/06/24 03:33:11;;;;;;;10.27;8.63;;;;;14.40;101546.00;;;;10468319;28;20236;-75
2021/06/24 03:38:13;;;;;;;14.30;9.73;;;;;14.30;101536.00;;;;10468759;28;20661;-75
2021/06/24 03:43:16;;;;;;;16.33;10.30;;;;;14.30;101542.00;;;;10484762;28;20192;-75
2021/06/24 03:48:18;;;;;;;12.00;9.57;;;;;14.30;101544.00;;;;10467861;28;20637;-75
2021/06/24 03:53:24;;;;;;;14.60;10.33;;;;;14.40;101547.00;;;;10494974;28;20208;-75
2021/06/24 03:58:27;;;;;;;11.50;9.70;;;;;14.40;101547.00;;;;10534632;28;20731;-75
2021/06/24 04:03:29;;;;;;;16.70;10.00;;;;;14.40;101542.00;;;;10534200;28;20192;-75
2021/06/24 04:08:38;;;;;;;13.97;10.20;;;;;14.50;101540.00;;;;10533958;28;20196;-75
2021/06/24 04:14:06;;;;;;;15.30;9.47;;;;;14.50;101550.00;;;;10586524;28;20211;-75
2021/06/24 04:19:29;;;;;;;15.60;10.13;;;;;14.50;101545.00;;;;10550580;28;20478;-75
2021/06/24 04:24:35;;;;;;;12.53;10.20;;;;;14.60;101549.00;;;;10534468;28;20176;-75
2021/06/24 04:29:38;;;;;;;13.77;10.77;;;;;14.60;101550.00;;;;10534265;28;20192;-75
2021/06/24 04:34:40;;;;;;;16.00;9.80;;;;;14.70;101547.00;;;;10567323;28;20814;-75
2021/06/24 04:39:43;;;;;;;10.80;9.70;;;;;14.80;101555.00;;;;10549944;28;20290;-75
2021/06/24 04:44:59;;;;;;;14.23;10.23;;;;;14.80;101549.00;;;;10552441;28;20176;-75
2021/06/24 04:50:04;;;;;;;10.77;9.67;;;;;14.90;101550.00;;;;10532477;28;20274;-75
2021/06/24 04:55:26;;;;;;;14.23;9.77;;;;;14.90;101550.00;;;;10487984;28;20308;-75
2021/06/24 05:00:34;;;;;;;12.07;9.90;;;;;15.00;101555.00;;;;10444276;28;20226;-75
2021/06/24 05:06:09;;;;;;;17.70;9.43;;;;;15.00;101556.00;;;;10510924;28;20196;-75
2021/06/24 05:11:12;;;;;;;10.90;9.03;;;;;15.10;101565.00;;;;10490396;28;20412;-75
2021/06/24 05:16:14;;;;;;;12.70;9.77;;;;;15.10;101554.00;;;;10506849;28;20242;-75
2021/06/24 05:21:17;;;;;;;14.83;9.27;;;;;15.20;101558.00;;;;10523592;28;20230;-75
2021/06/24 05:26:19;;;;;;;14.87;9.23;;;;;15.30;101548.00;;;;10476678;28;20526;-75
2021/06/24 05:31:21;;;;;;;15.40;9.27;;;;;15.50;101554.00;;;;10458960;28;20215;-75
2021/06/24 05:36:23;;;;;;;11.60;9.53;;;;;15.60;101560.00;;;;10522931;28;20242;-75
2021/06/24 05:41:24;;;;;;;18.07;8.90;;;;;15.80;101553.00;;;;10489336;28;20246;-75
2021/06/24 05:46:28;;;;;;;12.43;9.63;;;;;16.00;101545.00;;;;10474197;28;20239;-75
2021/06/24 05:51:30;;;;;;;15.03;9.07;;;;;16.20;101548.00;;;;10464084;28;20205;-75
2021/06/24 05:56:32;;;;;;;11.18;8.77;;;;;16.40;101539.00;;;;10475673;28;20547;-75
2021/06/24 06:01:34;;;;;;;11.43;9.27;;;;;16.50;101537.00;;;;10488414;28;20189;-75
2021/06/24 06:06:36;;;;;;;14.20;8.57;;;;;16.60;101531.00;;;;10481455;28;20202;-75
2021/06/24 06:11:38;;;;;;;11.60;8.37;;;;;16.70;101533.00;;;;10497486;28;20721;-75
2021/06/24 06:16:40;;;;;;;16.73;9.20;;;;;17.00;101535.00;;;;10466835;28;20243;-75
2021/06/24 06:21:42;;;;;;;12.13;8.70;;;;;17.30;101527.00;;;;10446992;28;20189;-75
2021/06/24 06:26:44;;;;;;;9.95;7.90;;;;;18.10;101524.00;;;;10479558;28;20579;-75
2021/06/24 06:31:52;;;;;;;15.45;7.95;;;;;18.40;101511.00;;;;10494295;28;20221;-76
2021/06/24 06:36:54;;;;;;;9.55;7.50;;;;;18.50;101516.00;;;;10462740;28;20216;-75
2021/06/24 06:41:56;;;;;;;10.55;8.30;;;;;18.60;101517.00;;;;10458373;28;20193;-76
2021/06/24 06:46:58;;;;;;;10.57;7.72;;;;;18.60;101520.00;;;;10503850;28;20192;-75
2021/06/24 06:52:00;;;;;;;10.50;7.57;;;;;18.80;101519.00;;;;10503452;28;20209;-76
2021/06/24 06:57:03;;;;;;;10.27;7.03;;;;;19.00;101520.00;;;;10478846;28;20200;-76
2021/06/24 07:02:05;;;;;;;11.05;8.05;;;;;19.40;101522.00;;;;10478930;28;20264;-76
2021/06/24 07:07:07;;;;;;;10.50;7.38;;;;;19.70;101522.00;;;;10478299;28;20245;-76
2021/06/24 07:12:09;;;;;;;11.05;7.68;;;;;20.00;101514.00;;;;10469398;28;20209;-76
2021/06/24 07:17:11;;;;;;;12.52;7.60;;;;;20.20;101507.00;;;;10503944;28;20181;-76
2021/06/24 07:22:13;;;;;;;8.30;7.00;;;;;20.30;101517.00;;;;10489275;28;20202;-76
2021/06/24 07:27:15;;;;;;;9.25;7.22;;;;;20.10;101505.00;;;;10504150;28;20201;-76
2021/06/24 07:32:18;;;;;;;9.02;7.22;;;;;20.40;101504.00;;;;10510483;28;20745;-76
2021/06/24 07:37:21;;;;;;;13.50;7.78;;;;;20.70;101500.00;;;;10544968;28;20212;-76
2021/06/24 07:42:23;;;;;;;9.32;7.85;;;;;20.70;101505.00;;;;10493863;28;20725;-76
2021/06/24 07:47:25;;;;;;;11.23;7.30;;;;;20.70;101503.00;;;;10493084;28;20652;-76
2021/06/24 07:52:27;;;;;;;12.50;8.00;;;;;20.80;101499.00;;;;10488342;28;20214;-76
2021/06/24 07:57:29;;;;;;;11.75;7.40;;;;;20.90;101503.00;;;;10452201;28;20194;-76
2021/06/24 08:02:31;;;;;;;10.45;7.40;;;;;21.10;101493.00;;;;10479749;28;20870;-76
2021/06/24 08:07:34;;;;;;;10.20;7.82;;;;;20.90;101493.00;;;;10544321;28;20196;-76
2021/06/24 08:12:36;;;;;;;9.38;6.93;;;;;20.80;101497.00;;;;10493482;28;20676;-76
2021/06/24 08:17:38;;;;;;;8.52;6.93;;;;;21.40;101498.00;;;;10450384;28;20198;-76
2021/06/24 08:22:41;;;;;;;15.27;8.00;;;;;21.80;101496.00;;;;10490458;28;20188;-76
2021/06/24 08:27:43;;;;;;;10.27;7.22;;;;;22.50;101488.00;;;;10508627;28;20215;-76
2021/06/24 08:32:45;;;;;;;10.05;6.93;;;;;22.50;101494.00;;;;10525563;28;20258;-76
2021/06/24 08:37:47;;;;;;;13.48;7.05;;;;;22.90;101479.00;;;;10508253;28;20243;-76
2021/06/24 08:42:50;;;;;;;10.35;6.80;;;;;23.10;101483.00;;;;10491186;28;20185;-76
2021/06/24 08:47:53;;;;;;;9.73;6.57;;;;;23.40;101486.00;;;;10524607;28;20228;-76
2021/06/24 08:52:55;;;;;;;9.75;7.10;;;;;23.70;101488.00;;;;10496851;28;20240;-76
2021/06/24 08:57:57;;;;;;;8.52;6.28;;;;;23.90;101488.00;;;;10465490;28;20649;-76
2021/06/24 09:03:16;;;;;;;7.18;6.25;;;;;23.90;101492.00;;;;10481968;28;20200;-76
2021/06/24 09:08:36;;;;;;;11.57;7.35;;;;;22.40;101494.00;;;;10481420;28;20200;-76
2021/06/24 09:13:39;;;;;;;10.48;7.15;;;;;22.10;101499.00;;;;10457454;28;20212;-76
2021/06/24 09:18:41;;;;;;;11.00;7.13;;;;;22.60;101496.00;;;;10465365;28;20594;-76
2021/06/24 09:23:43;;;;;;;14.52;7.72;;;;;23.10;101504.00;;;;10514947;28;20203;-76
2021/06/24 09:28:50;;;;;;;13.00;7.35;;;;;23.10;101497.00;;;;10541368;28;20193;-76
2021/06/24 09:33:53;;;;;;;11.93;7.15;;;;;23.60;101488.00;;;;10540677;28;20303;-75
2021/06/24 09:38:55;;;;;;;8.13;6.60;;;;;24.00;101502.00;;;;10505364;28;20196;-76
2021/06/24 09:43:57;;;;;;;14.20;7.25;;;;;24.10;101495.00;;;;10540427;28;20185;-76
2021/06/24 09:49:00;;;;;;;9.93;7.30;;;;;24.10;101496.00;;;;10521882;28;20647;-76
2021/06/24 09:54:06;;;;;;;9.43;6.90;;;;;24.10;101501.00;;;;10522597;28;20213;-76
2021/06/24 09:59:09;;;;;;;7.90;6.15;;;;;24.50;101495.00;;;;10505301;28;20197;-76
2021/06/24 10:04:21;;;;;;;10.50;6.80;;;;;24.60;101500.00;;;;10504721;28;20191;-76
2021/06/24 10:09:24;;;;;;;9.23;6.13;;;;;24.50;101499.00;;;;10521997;28;20207;-76
2021/06/24 10:14:28;;;;;;;8.05;6.43;;;;;24.30;101497.00;;;;10521728;28;20200;-76
2021/06/24 10:19:33;;;;;;;9.93;5.90;;;;;24.40;101498.00;;;;10504870;28;20188;-76
2021/06/24 10:24:43;;;;;;;8.13;5.88;;;;;24.50;101502.00;;;;10465928;28;20193;-75
2021/06/24 10:29:51;;;;;;;7.38;5.70;;;;;24.20;101501.00;;;;10479472;28;20248;-76
2021/06/24 10:34:54;;;;;;;6.97;6.15;;;;;23.40;101503.00;;;;10478615;28;20628;-76
2021/06/24 10:39:59;;;;;;;11.32;6.28;;;;;23.50;101511.00;;;;10479183;28;20201;-76
2021/06/24 10:45:15;;;;;;;8.45;6.55;;;;;23.80;101500.00;;;;10463211;28;20193;-76
2021/06/24 10:50:37;;;;;;;9.90;5.97;;;;;24.20;101502.00;;;;10462219;28;20247;-76
2021/06/24 10:55:41;;;;;;;10.68;7.22;;;;;24.20;101510.00;;;;10475704;28;20274;-76
2021/06/24 11:00:55;;;;;;;9.50;6.07;;;;;24.40;101501.00;;;;10486720;28;20203;-76
2021/06/24 11:06:13;;;;;;;10.95;7.57;;;;;25.40;101494.00;;;;10454125;28;20544;-76
2021/06/24 11:11:17;;;;;;;8.38;6.55;;;;;25.50;101492.00;;;;10437393;28;20189;-76
2021/06/24 11:16:19;;;;;;;9.63;7.18;;;;;26.30;101507.00;;;;10469586;28;20742;-76
2021/06/24 11:21:28;;;;;;;9.95;8.07;;;;;26.10;101502.00;;;;10469355;28;20637;-75
2021/06/24 11:26:34;;;;;;;10.25;7.25;;;;;26.20;101495.00;;;;10469803;28;20250;-76
2021/06/24 11:31:52;;;;;;;12.18;8.55;;;;;26.70;101491.00;;;;10485660;28;20185;-76
2021/06/24 11:37:00;;;;;;;10.32;8.07;;;;;27.30;101492.00;;;;10485925;28;20270;-76
2021/06/24 11:42:13;;;;;;;9.82;8.07;;;;;26.40;101495.00;;;;10533320;28;20203;-76
2021/06/24 11:47:17;;;;;;;10.73;8.68;;;;;25.50;101494.00;;;;10526448;28;20662;-76
2021/06/24 12:03:19;;;;;;;11.70;10.40;;;;;24.00;101494.00;;;;10451133;28;20201;-76
2021/06/24 12:08:25;;;;;;;12.32;10.38;;;;;23.60;101494.00;;;;10474254;28;20205;-76
2021/06/24 12:13:29;;;;;;;11.05;9.95;;;;;23.10;101494.00;;;;10541276;28;20324;-76
2021/06/24 12:18:38;;;;;;;16.40;10.70;;;;;22.60;101498.00;;;;10476269;28;20196;-76
2021/06/24 12:23:42;;;;;;;13.35;10.82;;;;;22.60;101493.00;;;;10499569;28;20188;-76
2021/06/24 12:28:44;;;;;;;11.65;10.48;;;;;22.70;101487.00;;;;10488237;28;20204;-75
2021/06/24 12:33:48;;;;;;;16.42;11.80;;;;;22.80;101491.00;;;;10466235;28;20213;-75
2021/06/24 12:38:50;;;;;;;13.00;11.15;;;;;23.00;101485.00;;;;10466116;28;20295;-76
2021/06/24 12:43:59;;;;;;;18.27;12.00;;;;;23.60;101492.00;;;;10483606;28;20212;-76
2021/06/24 12:49:13;;;;;;;14.85;10.82;;;;;23.80;101489.00;;;;10499778;28;20200;-76
2021/06/24 12:54:20;;;;;;;14.27;11.68;;;;;23.70;101496.00;;;;10449409;28;20259;-76
2021/06/24 12:59:22;;;;;;;16.88;11.85;;;;;23.80;101487.00;;;;10482922;28;20267;-75
2021/06/24 13:04:29;;;;;;;14.65;11.48;;;;;24.00;101493.00;;;;10482206;28;20177;-76
2021/06/24 13:09:31;;;;;;;14.55;11.75;;;;;24.10;101491.00;;;;10482233;28;20192;-76
2021/06/24 13:14:46;;;;;;;17.23;12.23;;;;;23.90;101493.00;;;;10498965;28;20247;-76
2021/06/24 13:19:55;;;;;;;21.15;12.18;;;;;24.10;101491.00;;;;10480418;28;20209;-76
2021/06/24 13:25:00;;;;;;;17.80;14.15;;;;;24.60;101492.00;;;;10513586;28;20194;-76
2021/06/24 13:30:14;;;;;;;16.38;13.25;;;;;24.60;101485.00;;;;10464235;28;21037;-76
2021/06/24 13:35:22;;;;;;;15.40;13.80;;;;;24.90;101486.00;;;;10463751;28;20624;-76
2021/06/24 13:40:35;;;;;;;19.55;13.48;;;;;24.40;101487.00;;;;10463883;28;20205;-76
2021/06/24 13:45:38;;;;;;;14.80;13.15;;;;;24.30;101489.00;;;;10498835;28;20198;-76
2021/06/24 13:50:40;;;;;;;16.02;13.80;;;;;23.60;101496.00;;;;10479815;28;20610;-76
2021/06/24 13:55:50;;;;;;;17.67;13.68;;;;;23.30;101493.00;;;;10480223;28;20312;-76
2021/06/24 14:00:53;;;;;;;16.65;13.63;;;;;23.20;101491.00;;;;10479787;28;20201;-76
2021/06/24 14:05:55;;;;;;;18.00;12.90;;;;;23.00;101495.00;;;;10498025;28;20192;-76
2021/06/24 14:11:02;;;;;;;18.65;14.00;;;;;23.10;101496.00;;;;10481332;28;20181;-76
2021/06/24 14:16:04;;;;;;;15.85;13.30;;;;;23.70;101491.00;;;;10480340;28;20216;-76
2021/06/24 14:21:12;;;;;;;17.05;13.63;;;;;23.50;101483.00;;;;10462638;28;20189;-76
2021/06/24 14:26:14;;;;;;;16.50;11.98;;;;;23.90;101492.00;;;;10491557;28;20205;-76
2021/06/24 14:31:16;;;;;;;17.23;13.05;;;;;23.90;101484.00;;;;10462870;28;20189;-76
2021/06/24 14:36:19;;;;;;;16.92;14.05;;;;;23.90;101480.00;;;;10479396;28;20224;-76
2021/06/24 14:41:21;;;;;;;17.42;15.15;;;;;23.10;101482.00;;;;10478952;28;20743;-76
2021/06/24 14:46:23;;;;;;;22.77;16.50;;;;;22.60;101473.00;;;;10478927;28;20197;-76
2021/06/24 14:51:25;;;;;;;18.48;16.02;;;;;22.90;101473.00;;;;10462094;28;20545;-76
2021/06/24 14:56:29;;;;;;;18.25;15.93;;;;;23.30;101478.00;;;;10534647;28;20223;-76
2021/06/24 15:01:31;;;;;;;19.00;17.00;;;;;23.60;101477.00;;;;10503344;28;20215;-76
2021/06/24 15:06:33;;;;;;;22.48;20.20;;;;;24.00;101480.00;;;;10478513;28;20197;-76
2021/06/24 15:11:35;;;;;;;20.23;18.05;;;;;22.90;101479.00;;;;10461836;28;20217;-76
2021/06/24 15:16:37;;;;;;;23.52;20.98;;;;;22.20;101478.00;;;;10495298;28;20214;-76
2021/06/24 15:21:39;;;;;;;24.02;21.35;;;;;22.00;101473.00;;;;10478513;28;20193;-75
2021/06/24 15:26:41;;;;;;;22.15;20.15;;;;;22.60;101467.00;;;;10461249;28;20198;-76
2021/06/24 15:31:43;;;;;;;22.48;19.95;;;;;22.90;101467.00;;;;10461026;28;20217;-76
2021/06/24 15:36:45;;;;;;;20.10;17.85;;;;;23.30;101472.00;;;;10478035;28;20201;-76
2021/06/24 15:41:47;;;;;;;20.85;18.70;;;;;22.80;101470.00;;;;10481024;28;20189;-76
2021/06/24 15:46:49;;;;;;;20.90;18.90;;;;;22.00;101464.00;;;;10468470;28;20286;-75
2021/06/24 15:51:52;;;;;;;20.70;18.65;;;;;22.20;101462.00;;;;10485330;28;20229;-76
2021/06/24 15:56:54;;;;;;;23.60;18.88;;;;;22.60;101459.00;;;;10451876;28;20572;-76
2021/06/24 16:01:56;;;;;;;27.00;19.65;;;;;22.80;101457.00;;;;10485502;28;20195;-75
2021/06/24 16:06:58;;;;;;;21.85;19.10;;;;;22.70;101454.00;;;;10484918;28;20233;-76
2021/06/24 16:12:01;;;;;;;23.52;19.20;;;;;22.60;101453.00;;;;10467849;28;20210;-75
2021/06/24 16:17:05;;;;;;;19.20;16.83;;;;;22.50;101450.00;;;;10484662;28;20210;-76
2021/06/24 16:22:06;;;;;;;23.65;17.42;;;;;22.80;101449.00;;;;10467097;28;20259;-76
2021/06/24 16:27:09;;;;;;;17.92;16.02;;;;;23.00;101447.00;;;;10501384;28;20277;-76
2021/06/24 16:32:11;;;;;;;18.77;16.77;;;;;23.20;101434.00;;;;10483072;28;21169;-76
2021/06/24 16:37:13;;;;;;;18.38;16.50;;;;;23.70;101434.00;;;;10482819;28;20217;-76
2021/06/24 16:42:15;;;;;;;19.40;16.63;;;;;24.30;101433.00;;;;10491105;28;20193;-76
2021/06/24 16:47:17;;;;;;;17.20;14.68;;;;;24.50;101435.00;;;;10507870;28;20201;-76
2021/06/24 16:52:19;;;;;;;19.25;17.25;;;;;24.10;101432.00;;;;10518967;28;20190;-76
2021/06/24 16:57:21;;;;;;;19.25;16.90;;;;;23.50;101431.00;;;;10483103;28;20568;-76
2021/06/24 17:02:23;;;;;;;17.52;15.65;;;;;23.30;101434.00;;;;10465253;28;20209;-76
2021/06/24 17:07:25;;;;;;;18.33;16.40;;;;;22.80;101440.00;;;;10482511;28;20200;-76
2021/06/24 17:12:27;;;;;;;17.27;15.68;;;;;22.90;101433.00;;;;10482604;28;20202;-76
2021/06/24 17:17:29;;;;;;;18.83;16.83;;;;;23.40;101432.00;;;;10481470;28;20300;-76
2021/06/24 17:22:32;;;;;;;18.00;15.65;;;;;23.30;101430.00;;;;10470397;28;20238;-76
2021/06/24 17:27:34;;;;;;;21.77;16.98;;;;;22.50;101435.00;;;;10506945;28;20540;-76
2021/06/24 17:32:36;;;;;;;19.15;17.27;;;;;21.60;101441.00;;;;10522905;28;20259;-76
2021/06/24 17:37:39;;;;;;;18.67;16.85;;;;;21.40;101440.00;;;;10505771;28;20247;-76
2021/06/24 17:42:43;;;;;;;21.33;16.83;;;;;21.40;101431.00;;;;10508777;28;20217;-76
2021/06/24 17:47:46;;;;;;;19.67;17.02;;;;;21.60;101434.00;;;;10480770;28;20185;-76
2021/06/24 17:52:48;;;;;;;18.60;16.60;;;;;21.80;101433.00;;;;10463534;28;20958;-76
2021/06/24 17:57:55;;;;;;;17.98;15.98;;;;;21.70;101434.00;;;;10480053;28;20189;-76
2021/06/24 18:02:57;;;;;;;19.02;17.10;;;;;21.60;101435.00;;;;10480496;28;20264;-76
2021/06/24 18:08:07;;;;;;;19.42;17.55;;;;;21.80;101432.00;;;;10479673;28;20189;-76
2021/06/24 18:13:09;;;;;;;19.80;17.33;;;;;21.90;101425.00;;;;10462960;28;20214;-76
2021/06/24 18:18:11;;;;;;;19.15;17.23;;;;;21.70;101451.00;;;;10516494;28;20192;-76
2021/06/24 18:23:13;;;;;;;22.48;17.95;;;;;21.40;101446.00;;;;10539132;28;20196;-76
2021/06/24 18:28:15;;;;;;;20.77;18.48;;;;;21.00;101438.00;;;;10538599;28;20196;-76
2021/06/24 18:33:17;;;;;;;21.80;18.58;;;;;20.60;101442.00;;;;10520530;28;20282;-76
2021/06/24 18:38:19;;;;;;;21.20;19.02;;;;;20.30;101453.00;;;;10488818;28;20259;-76
2021/06/24 18:43:21;;;;;;;25.45;21.80;;;;;19.80;101445.00;;;;10497505;28;20195;-76
2021/06/24 18:48:23;;;;;;;23.63;21.10;;;;;19.50;101450.00;;;;10507703;28;20193;-76
2021/06/24 18:53:25;;;;;;;23.70;21.25;;;;;19.40;101455.00;;;;10503853;28;20683;-76
2021/06/24 18:58:27;;;;;;;22.88;19.55;;;;;19.30;101460.00;;;;10504254;28;20271;-76
2021/06/24 19:03:29;;;;;;;23.98;20.33;;;;;19.30;101456.00;;;;10538532;28;20192;-76
2021/06/24 19:08:31;;;;;;;21.92;19.52;;;;;19.20;101449.00;;;;10521045;28;20193;-76
2021/06/24 19:13:33;;;;;;;21.90;19.55;;;;;19.10;101462.00;;;;10520707;28;20667;-76
2021/06/24 19:18:35;;;;;;;26.02;19.38;;;;;18.70;101469.00;;;;10526764;28;20635;-76
2021/06/24 19:23:37;;;;;;;22.90;18.30;;;;;18.20;101473.00;;;;10513201;28;20224;-75
2021/06/24 19:28:39;;;;;;;24.85;19.65;;;;;17.80;101472.00;;;;10519175;28;20242;-76
2021/06/24 19:33:41;;;;;;;20.17;18.08;;;;;17.60;101486.00;;;;10468887;28;20214;-76
2021/06/24 19:38:43;;;;;;;24.48;20.27;;;;;17.30;101485.00;;;;10485970;28;20202;-76
2021/06/24 19:43:44;;;;;;;21.63;19.35;;;;;17.10;101484.00;;;;10452305;28;20204;-76
2021/06/24 19:48:52;;;;;;;21.73;19.15;;;;;16.90;101486.00;;;;10452608;28;20556;-76
2021/06/24 19:53:55;;;;;;;27.17;21.53;;;;;16.70;101503.00;;;;10468889;28;20217;-76
2021/06/24 19:58:57;;;;;;;26.97;20.23;;;;;16.50;101511.00;;;;10468692;28;20190;-76
2021/06/24 20:03:59;;;;;;;25.00;20.77;;;;;16.40;101514.00;;;;10502092;28;20636;-76
2021/06/24 20:09:03;;;;;;;26.80;20.73;;;;;16.30;101526.00;;;;10502312;28;20279;-76
2021/06/24 20:14:05;;;;;;;27.03;21.57;;;;;16.20;101528.00;;;;10484125;28;20660;-76
2021/06/24 20:19:07;;;;;;;23.43;20.63;;;;;16.10;101537.00;;;;10451449;28;20648;-76
2021/06/24 20:24:09;;;;;;;28.53;20.73;;;;;15.90;101538.00;;;;10489949;28;20643;-76
2021/06/24 20:29:11;;;;;;;29.63;21.47;;;;;15.70;101549.00;;;;10550490;28;20202;-76
2021/06/24 20:34:13;;;;;;;26.97;21.87;;;;;15.60;101548.00;;;;10567264;28;20219;-76
2021/06/24 20:39:15;;;;;;;26.20;21.97;;;;;15.50;101549.00;;;;10550314;28;20200;-76
2021/06/24 20:44:17;;;;;;;23.73;20.80;;;;;15.40;101548.00;;;;10550234;28;20192;-76
2021/06/24 20:49:19;;;;;;;29.57;22.67;;;;;15.30;101546.00;;;;10533245;28;20198;-76
2021/06/24 20:54:21;;;;;;;25.80;23.00;;;;;15.20;101554.00;;;;10566906;28;20241;-76
2021/06/24 20:59:23;;;;;;;28.17;24.10;;;;;15.10;101555.00;;;;10566458;28;20283;-76
2021/06/24 21:04:25;;;;;;;29.70;23.43;;;;;14.90;101554.00;;;;10566645;28;20189;-76
2021/06/24 21:09:27;;;;;;;29.53;23.63;;;;;14.80;101554.00;;;;10532169;28;20188;-76
2021/06/24 21:14:29;;;;;;;30.17;24.20;;;;;14.70;101559.00;;;;10548887;28;20674;-76
2021/06/24 21:19:31;;;;;;;32.03;25.30;;;;;14.60;101553.00;;;;10531951;28;20200;-76
2021/06/24 21:24:33;;;;;;;29.20;26.03;;;;;14.50;101558.00;;;;10565555;28;20298;-76
2021/06/24 21:29:35;;;;;;;29.10;25.37;;;;;14.40;101563.00;;;;10565202;28;20192;-76
2021/06/24 21:34:37;;;;;;;35.80;26.33;;;;;14.50;101555.00;;;;10548161;28;20216;-76
2021/06/24 21:39:39;;;;;;;34.50;26.53;;;;;14.60;101557.00;;;;10546920;28;20207;-76
2021/06/24 21:44:41;;;;;;;30.93;23.43;;;;;14.60;101547.00;;;;10530705;28;20196;-76
2021/06/24 21:49:43;;;;;;;33.37;26.70;;;;;14.50;101548.00;;;;10564141;28;20275;-76
2021/06/24 21:54:45;;;;;;;33.33;27.83;;;;;14.40;101549.00;;;;10522692;28;20238;-76
2021/06/24 21:59:47;;;;;;;38.07;28.83;;;;;14.30;101538.00;;;;10521837;28;20212;-76
2021/06/24 22:04:49;;;;;;;35.70;28.23;;;;;14.20;101535.00;;;;10488823;28;20193;-76
2021/06/24 22:09:51;;;;;;;38.13;29.60;;;;;14.10;101537.00;;;;10522082;28;20200;-76
2021/06/24 22:14:53;;;;;;;37.50;29.03;;;;;14.10;101533.00;;;;10520623;28;20709;-76
2021/06/24 22:19:55;;;;;;;35.13;27.70;;;;;13.90;101528.00;;;;10487697;28;20189;-76
2021/06/24 22:24:57;;;;;;;37.17;32.30;;;;;13.80;101532.00;;;;10496368;28;20201;-75
2021/06/24 22:29:59;;;;;;;43.93;32.23;;;;;13.70;101523.00;;;;10478989;28;20204;-76
2021/06/24 22:35:02;;;;;;;45.33;31.57;;;;;13.60;101521.00;;;;10479135;28;20307;-76
2021/06/24 22:40:05;;;;;;;40.17;31.43;;;;;13.50;101511.00;;;;10462312;28;20201;-76
2021/06/24 22:45:08;;;;;;;42.83;33.37;;;;;13.40;101511.00;;;;10478532;28;20188;-76
2021/06/24 22:50:12;;;;;;;42.23;33.50;;;;;13.30;101506.00;;;;10464648;28;20198;-76
2021/06/24 22:55:15;;;;;;;45.33;34.23;;;;;13.20;101505.00;;;;10521680;28;20261;-76
2021/06/24 23:00:17;;;;;;;44.40;34.00;;;;;13.10;101518.00;;;;10571170;28;20650;-76
2021/06/24 23:05:19;;;;;;;53.80;34.47;;;;;13.00;101503.00;;;;10571083;28;20183;-76
2021/06/24 23:10:21;;;;;;;45.13;35.63;;;;;12.90;101500.00;;;;10588437;28;20646;-76
2021/06/24 23:15:23;;;;;;;48.70;36.27;;;;;12.80;101496.00;;;;10570550;28;20558;-76
2021/06/24 23:20:25;;;;;;;43.73;34.77;;;;;12.70;101498.00;;;;10553477;28;20192;-76
2021/06/24 23:25:28;;;;;;;47.73;34.73;;;;;12.60;101493.00;;;;10539306;28;20192;-76
2021/06/24 23:30:30;;;;;;;44.63;34.00;;;;;12.50;101494.00;;;;10506907;28;20193;-76
2021/06/24 23:35:33;;;;;;;52.10;36.90;;;;;12.40;101479.00;;;;10485528;28;20205;-76
2021/06/24 23:40:34;;;;;;;48.33;34.93;;;;;12.30;101478.00;;;;10485155;28;20212;-76
2021/06/24 23:45:36;;;;;;;48.77;35.23;;;;;12.20;101477.00;;;;10484897;28;20186;-76
2021/06/24 23:50:38;;;;;;;46.60;35.13;;;;;12.10;101481.00;;;;10468113;28;20198;-76
2021/06/24 23:55:41;;;;;;;47.90;35.00;;;;;12.00;101473.00;;;;10516985;28;20244;-76
